Time;durP1;ratioP1;P1;durP2;ratioP2;P2;SDS_P1;SDS_P2;PMS_P1;PMS_P2;Temp;Humidity;BMP_temperature;BMP_pressure;BME280_temperature;BME280_humidity;BME280_pressure;Samples;Min_cycle;Max_cycle;Signal;HPM_P1;HPM_P2
2021/09/29 00:00:47;;;;;;;20.95;3.63;;;17.60;99.90;;;;;;4831493;29;20124;-79
2021/09/29 00:03:13;;;;;;;17.33;2.08;;;17.70;99.90;;;;;;4841271;29;20026;-79
2021/09/29 00:05:39;;;;;;;23.55;3.17;;;17.80;99.90;;;;;;4841060;29;20038;-79
2021/09/29 00:08:10;;;;;;;17.60;2.75;;;17.70;99.90;;;;;;4831694;29;20026;-79
2021/09/29 00:10:37;;;;;;;22.33;2.83;;;17.70;99.90;;;;;;4832517;29;20535;-79
2021/09/29 00:13:03;;;;;;;21.33;2.95;;;17.70;99.90;;;;;;4841173;29;20026;-79
2021/09/29 00:15:29;;;;;;;17.05;3.00;;;17.80;99.90;;;;;;4840573;29;20054;-79
2021/09/29 00:17:55;;;;;;;21.38;3.00;;;17.80;99.90;;;;;;4841533;29;20395;-79
2021/09/29 00:20:20;;;;;;;24.85;3.70;;;17.80;99.90;;;;;;4837433;29;20037;-79
2021/09/29 00:22:46;;;;;;;21.33;3.33;;;17.80;99.90;;;;;;4841285;29;20042;-79
2021/09/29 00:25:15;;;;;;;20.27;2.92;;;17.80;99.90;;;;;;4834306;29;20113;-79
2021/09/29 00:27:41;;;;;;;18.00;2.70;;;17.70;99.90;;;;;;4830333;29;20061;-78
2021/09/29 00:30:09;;;;;;;14.32;2.72;;;17.70;99.90;;;;;;4837387;29;20048;-79
2021/09/29 00:32:39;;;;;;;20.45;3.15;;;17.70;99.90;;;;;;4828472;29;20026;-79
2021/09/29 00:35:06;;;;;;;19.27;2.72;;;17.70;99.90;;;;;;4833302;29;20098;-79
2021/09/29 00:37:31;;;;;;;20.75;3.30;;;17.70;99.90;;;;;;4829059;29;20026;-78
2021/09/29 00:39:57;;;;;;;25.40;3.38;;;17.70;99.90;;;;;;4840609;29;20380;-78
2021/09/29 00:42:23;;;;;;;19.20;2.97;;;17.50;99.90;;;;;;4833884;29;20488;-78
2021/09/29 00:44:50;;;;;;;28.27;4.00;;;17.50;99.90;;;;;;4833437;29;20034;-78
2021/09/29 00:47:17;;;;;;;20.52;3.75;;;17.40;99.90;;;;;;4840842;29;20030;-78
2021/09/29 00:49:43;;;;;;;20.08;3.13;;;17.30;99.90;;;;;;4840032;29;20098;-78
2021/09/29 00:52:09;;;;;;;22.35;3.55;;;17.20;99.90;;;;;;4839460;29;20026;-78
2021/09/29 00:54:34;;;;;;;23.83;4.50;;;17.30;99.90;;;;;;4823460;29;20037;-78
2021/09/29 00:57:00;;;;;;;55.38;6.32;;;17.20;99.90;;;;;;4839680;29;20022;-78
2021/09/29 00:59:26;;;;;;;51.75;6.63;;;17.10;99.90;;;;;;4833672;29;20019;-78
2021/09/29 01:01:54;;;;;;;50.28;6.45;;;17.00;99.90;;;;;;4833970;29;20041;-78
2021/09/29 01:04:22;;;;;;;54.30;6.65;;;17.00;99.90;;;;;;4829332;29;20025;-78
2021/09/29 01:07:03;;;;;;;39.55;4.85;;;17.00;99.90;;;;;;4825451;29;20034;-77
2021/09/29 01:09:46;;;;;;;35.78;4.93;;;17.00;99.90;;;;;;4836283;29;20065;-78
2021/09/29 01:12:36;;;;;;;31.67;4.53;;;17.00;99.90;;;;;;4823734;29;20135;-77
2021/09/29 01:15:05;;;;;;;31.15;3.58;;;17.10;99.90;;;;;;4828424;29;20521;-78
2021/09/29 01:17:33;;;;;;;28.17;3.90;;;17.20;99.90;;;;;;4827382;29;20524;-77
2021/09/29 01:20:14;;;;;;;26.60;3.80;;;17.20;99.90;;;;;;4838954;29;20109;-77
2021/09/29 01:23:17;;;;;;;25.38;3.78;;;17.20;99.90;;;;;;4820130;29;20090;-77
2021/09/29 01:25:58;;;;;;;29.52;3.67;;;17.10;99.90;;;;;;4834199;29;20030;-77
2021/09/29 01:28:32;;;;;;;27.42;3.67;;;17.00;99.90;;;;;;4834994;29;20499;-77
2021/09/29 01:31:00;;;;;;;31.80;3.95;;;17.00;99.90;;;;;;4831355;29;20053;-78
2021/09/29 01:33:29;;;;;;;23.05;3.97;;;17.00;99.90;;;;;;4839689;29;20034;-77
2021/09/29 01:35:55;;;;;;;39.83;4.88;;;16.90;99.90;;;;;;4840329;29;20030;-79
2021/09/29 01:38:22;;;;;;;41.65;4.93;;;17.00;99.90;;;;;;4843856;29;20037;-78
2021/09/29 01:40:48;;;;;;;32.13;6.05;;;16.90;99.90;;;;;;4833691;29;20124;-80
2021/09/29 01:43:13;;;;;;;37.95;4.15;;;16.80;99.90;;;;;;4842516;29;20134;-80
2021/09/29 01:45:39;;;;;;;27.05;3.70;;;16.70;99.90;;;;;;4843284;29;20704;-80
2021/09/29 01:48:05;;;;;;;23.35;2.65;;;16.60;99.90;;;;;;4836607;29;20420;-79
2021/09/29 01:50:32;;;;;;;25.45;3.55;;;16.50;99.90;;;;;;4823103;29;20049;-78
2021/09/29 01:53:00;;;;;;;16.95;2.42;;;16.40;99.90;;;;;;4836304;29;20026;-78
2021/09/29 01:55:27;;;;;;;23.63;3.00;;;16.40;99.90;;;;;;4833720;29;20034;-78
2021/09/29 01:57:54;;;;;;;23.70;2.72;;;16.30;99.90;;;;;;4829733;29;20030;-78
2021/09/29 02:00:23;;;;;;;27.58;3.35;;;16.30;99.90;;;;;;4837573;29;20022;-78
2021/09/29 02:02:49;;;;;;;24.33;3.08;;;16.30;99.90;;;;;;4833803;29;20034;-78
2021/09/29 02:05:30;;;;;;;32.95;3.85;;;16.30;99.90;;;;;;4839199;29;20086;-78
2021/09/29 02:07:57;;;;;;;37.47;4.72;;;16.30;99.90;;;;;;4839064;29;20516;-78
2021/09/29 02:10:23;;;;;;;38.08;4.43;;;16.30;99.90;;;;;;4839472;29;20073;-78
2021/09/29 02:12:48;;;;;;;34.15;4.95;;;16.40;99.90;;;;;;4841950;29;20511;-78
2021/09/29 02:15:14;;;;;;;29.67;4.45;;;16.40;99.90;;;;;;4842862;29;20054;-78
2021/09/29 02:17:40;;;;;;;42.38;5.40;;;16.50;99.90;;;;;;4842904;29;20034;-78
2021/09/29 02:20:06;;;;;;;35.58;4.43;;;16.50;99.90;;;;;;4842488;29;20037;-79
2021/09/29 02:22:32;;;;;;;31.77;5.03;;;16.60;99.90;;;;;;4841790;29;20430;-78
2021/09/29 02:24:58;;;;;;;30.83;4.60;;;16.60;99.90;;;;;;4842733;29;20037;-78
2021/09/29 02:27:23;;;;;;;35.13;4.60;;;16.70;99.90;;;;;;4841475;29;21807;-79
2021/09/29 02:29:49;;;;;;;39.80;4.90;;;16.80;99.90;;;;;;4826649;29;20026;-79
2021/09/29 02:32:15;;;;;;;40.80;4.30;;;16.80;99.90;;;;;;4841931;29;20034;-79
2021/09/29 02:34:41;;;;;;;25.25;4.03;;;16.60;99.90;;;;;;4830360;29;20095;-81
2021/09/29 02:37:06;;;;;;;25.00;2.72;;;16.40;99.90;;;;;;4839340;29;20221;-80
2021/09/29 02:39:32;;;;;;;24.80;3.22;;;16.30;99.90;;;;;;4842012;29;20492;-79
2021/09/29 02:41:59;;;;;;;25.60;3.42;;;16.20;99.90;;;;;;4833382;29;20025;-79
2021/09/29 02:44:24;;;;;;;42.03;4.45;;;16.20;99.90;;;;;;4836722;29;20037;-78
2021/09/29 02:46:50;;;;;;;30.73;4.20;;;16.20;99.90;;;;;;4824323;29;20035;-78
2021/09/29 02:49:16;;;;;;;37.67;5.32;;;16.20;99.90;;;;;;4842585;29;20373;-79
2021/09/29 02:51:42;;;;;;;34.33;4.97;;;16.20;99.90;;;;;;4831113;29;20030;-79
2021/09/29 02:54:08;;;;;;;33.88;4.05;;;16.20;99.90;;;;;;4841753;29;20166;-79
2021/09/29 02:56:33;;;;;;;36.88;5.50;;;16.30;99.90;;;;;;4842432;29;20033;-79
2021/09/29 02:58:59;;;;;;;30.73;4.55;;;16.20;99.90;;;;;;4834265;29;20022;-79
2021/09/29 03:01:25;;;;;;;33.63;5.43;;;16.20;99.90;;;;;;4830138;29;20023;-79
2021/09/29 03:03:51;;;;;;;23.85;2.67;;;16.20;99.90;;;;;;4828647;29;20065;-79
2021/09/29 03:06:17;;;;;;;27.75;4.15;;;16.20;99.90;;;;;;4829221;29;20138;-79
2021/09/29 03:08:43;;;;;;;17.73;2.40;;;16.20;99.90;;;;;;4826418;29;20047;-79
2021/09/29 03:11:09;;;;;;;24.13;3.13;;;16.10;99.90;;;;;;4827263;29;20038;-79
2021/09/29 03:13:36;;;;;;;27.92;2.42;;;16.10;99.90;;;;;;4826582;29;20492;-79
2021/09/29 03:16:01;;;;;;;35.85;4.43;;;16.10;99.90;;;;;;4842011;29;20024;-79
2021/09/29 03:18:27;;;;;;;21.73;2.92;;;16.10;99.90;;;;;;4825590;29;20109;-79
2021/09/29 03:20:53;;;;;;;22.70;2.95;;;16.10;99.90;;;;;;4841832;29;20044;-79
2021/09/29 03:23:18;;;;;;;21.70;2.50;;;16.10;99.90;;;;;;4840869;29;20037;-79
2021/09/29 03:25:44;;;;;;;32.30;4.30;;;16.10;99.90;;;;;;4841864;29;20061;-79
2021/09/29 03:28:10;;;;;;;29.27;3.33;;;16.10;99.90;;;;;;4841890;29;20018;-79
2021/09/29 03:30:36;;;;;;;27.50;3.63;;;16.10;99.90;;;;;;4828045;29;20550;-79
2021/09/29 03:33:06;;;;;;;25.23;3.17;;;16.10;99.90;;;;;;4841683;29;20026;-79
2021/09/29 03:35:32;;;;;;;19.52;2.38;;;16.10;99.90;;;;;;4841485;29;20377;-79
2021/09/29 03:37:58;;;;;;;26.88;3.22;;;16.10;99.90;;;;;;4825517;29;20439;-79
2021/09/29 03:40:23;;;;;;;19.42;3.63;;;16.10;99.90;;;;;;4841896;29;20112;-79
2021/09/29 03:42:49;;;;;;;22.48;2.85;;;16.10;99.90;;;;;;4841608;29;20026;-79
2021/09/29 03:45:15;;;;;;;28.92;2.80;;;16.10;99.90;;;;;;4841847;29;20049;-79
2021/09/29 03:47:42;;;;;;;30.25;3.60;;;16.10;99.90;;;;;;4840038;29;20171;-79
2021/09/29 03:50:08;;;;;;;21.65;2.30;;;16.00;99.90;;;;;;4836025;29;20037;-79
2021/09/29 03:52:34;;;;;;;24.23;3.03;;;16.00;99.90;;;;;;4836744;29;20030;-79
2021/09/29 03:55:00;;;;;;;33.75;3.35;;;16.00;99.90;;;;;;4824788;29;20033;-79
2021/09/29 03:57:25;;;;;;;28.25;3.65;;;15.90;99.90;;;;;;4841381;29;20261;-79
2021/09/29 03:59:51;;;;;;;22.98;2.80;;;16.00;99.90;;;;;;4840977;29;20025;-79
2021/09/29 04:02:17;;;;;;;23.98;3.17;;;15.90;99.90;;;;;;4841697;29;20121;-79
2021/09/29 04:04:42;;;;;;;25.50;3.13;;;15.90;99.90;;;;;;4839867;29;20048;-79
2021/09/29 04:07:08;;;;;;;27.27;3.03;;;16.00;99.90;;;;;;4841092;29;20397;-79
2021/09/29 04:09:34;;;;;;;21.17;3.13;;;16.00;99.90;;;;;;4840800;29;20069;-79
2021/09/29 04:11:59;;;;;;;29.20;3.42;;;15.90;99.90;;;;;;4840998;29;20042;-79
2021/09/29 04:14:25;;;;;;;21.23;2.78;;;15.90;99.90;;;;;;4838606;29;20051;-79
2021/09/29 04:16:51;;;;;;;27.20;4.03;;;15.90;99.90;;;;;;4840829;29;20045;-79
2021/09/29 04:19:17;;;;;;;26.65;3.13;;;15.90;99.90;;;;;;4841125;29;20437;-79
2021/09/29 04:21:43;;;;;;;27.92;3.22;;;15.90;99.90;;;;;;4840836;29;20030;-79
2021/09/29 04:24:10;;;;;;;25.02;3.15;;;15.90;99.90;;;;;;4840888;29;20034;-79
2021/09/29 04:26:38;;;;;;;40.40;3.97;;;15.90;99.90;;;;;;4838073;29;20068;-79
2021/09/29 04:29:04;;;;;;;17.88;2.83;;;16.00;99.90;;;;;;4824283;29;20038;-79
2021/09/29 04:31:30;;;;;;;25.38;2.95;;;16.00;99.90;;;;;;4839326;29;20052;-79
2021/09/29 04:33:56;;;;;;;29.05;2.88;;;16.00;99.90;;;;;;4839140;29;20037;-79
2021/09/29 04:36:24;;;;;;;31.45;2.70;;;16.00;99.90;;;;;;4840242;29;20032;-79
2021/09/29 04:38:49;;;;;;;21.88;3.55;;;16.00;99.90;;;;;;4840167;29;20492;-79
2021/09/29 04:41:15;;;;;;;24.10;3.20;;;16.00;99.90;;;;;;4840477;29;20036;-78
2021/09/29 04:43:41;;;;;;;26.90;3.20;;;16.00;99.90;;;;;;4840242;29;20102;-79
2021/09/29 04:46:06;;;;;;;27.60;2.72;;;16.10;99.90;;;;;;4822180;29;20053;-79
2021/09/29 04:48:32;;;;;;;25.77;2.90;;;16.10;99.90;;;;;;4840119;29;20065;-79
2021/09/29 04:50:58;;;;;;;20.27;2.55;;;16.10;99.90;;;;;;4839948;29;20086;-79
2021/09/29 04:53:23;;;;;;;19.65;2.30;;;16.10;99.90;;;;;;4840352;29;20045;-79
2021/09/29 04:55:49;;;;;;;13.23;2.28;;;16.10;99.90;;;;;;4840011;29;20050;-79
2021/09/29 04:58:15;;;;;;;15.60;1.65;;;16.00;99.90;;;;;;4834712;29;20026;-79
2021/09/29 05:00:40;;;;;;;16.38;1.65;;;16.10;99.90;;;;;;4839866;29;20113;-79
2021/09/29 05:03:07;;;;;;;12.63;2.10;;;16.00;99.90;;;;;;4840213;29;20022;-79
2021/09/29 05:05:34;;;;;;;25.35;1.88;;;16.00;99.90;;;;;;4839475;29;20510;-80
2021/09/29 05:08:02;;;;;;;21.25;2.22;;;16.00;99.90;;;;;;4840202;29;20108;-79
2021/09/29 05:10:53;;;;;;;14.88;2.20;;;16.00;99.90;;;;;;4840155;29;20118;-79
2021/09/29 05:13:25;;;;;;;20.13;2.58;;;15.90;99.90;;;;;;4816817;29;20036;-79
2021/09/29 05:15:51;;;;;;;21.17;2.75;;;15.90;99.90;;;;;;4839535;29;20086;-79
2021/09/29 05:18:17;;;;;;;18.60;2.40;;;15.90;99.90;;;;;;4836119;29;20495;-80
2021/09/29 05:20:43;;;;;;;14.27;1.52;;;15.80;99.90;;;;;;4828972;29;20110;-79
2021/09/29 05:23:08;;;;;;;16.65;2.10;;;15.80;99.90;;;;;;4829265;29;20034;-79
2021/09/29 05:25:34;;;;;;;16.05;2.38;;;15.80;99.90;;;;;;4838412;29;20030;-79
2021/09/29 05:28:00;;;;;;;15.20;2.00;;;15.70;99.90;;;;;;4829604;29;20373;-79
2021/09/29 05:30:26;;;;;;;15.80;1.70;;;15.70;99.90;;;;;;4839650;29;20034;-79
2021/09/29 05:32:52;;;;;;;15.70;1.70;;;15.70;99.90;;;;;;4840117;29;20030;-79
2021/09/29 05:35:18;;;;;;;13.35;1.55;;;15.70;99.90;;;;;;4833234;29;20030;-80
2021/09/29 05:37:43;;;;;;;14.00;1.77;;;15.70;99.90;;;;;;4838111;29;20033;-80
2021/09/29 05:40:10;;;;;;;16.27;1.92;;;15.70;99.90;;;;;;4839594;29;20029;-84
2021/09/29 05:42:35;;;;;;;15.63;2.22;;;15.70;99.90;;;;;;4836158;29;20030;-83
2021/09/29 05:45:01;;;;;;;18.17;1.88;;;15.60;99.90;;;;;;4820674;29;20026;-84
2021/09/29 05:47:27;;;;;;;11.82;1.58;;;15.70;99.90;;;;;;4838898;29;20113;-84
2021/09/29 05:49:52;;;;;;;14.40;2.30;;;15.70;99.90;;;;;;4836956;29;20449;-84
2021/09/29 05:52:18;;;;;;;14.55;1.70;;;15.70;99.90;;;;;;4835140;29;20034;-84
2021/09/29 05:54:44;;;;;;;19.42;2.20;;;15.60;99.90;;;;;;4836764;29;20101;-84
2021/09/29 05:57:09;;;;;;;13.85;1.88;;;15.60;99.90;;;;;;4836933;29;20061;-84
2021/09/29 05:59:35;;;;;;;12.15;1.90;;;15.50;99.90;;;;;;4838729;29;20026;-84
2021/09/29 06:02:01;;;;;;;8.68;1.67;;;15.60;99.90;;;;;;4835738;29;20034;-84
2021/09/29 06:04:26;;;;;;;13.73;1.92;;;15.60;99.90;;;;;;4835217;29;20028;-85
2021/09/29 06:06:52;;;;;;;12.50;1.70;;;15.50;99.90;;;;;;4823614;29;20033;-84
2021/09/29 06:09:19;;;;;;;11.10;2.00;;;15.50;99.90;;;;;;4833883;29;20113;-84
2021/09/29 06:11:44;;;;;;;17.98;2.30;;;15.50;99.90;;;;;;4836433;29;20081;-84
2021/09/29 06:14:10;;;;;;;18.65;2.10;;;15.50;99.90;;;;;;4837665;29;20520;-84
2021/09/29 06:16:43;;;;;;;15.85;2.15;;;15.50;99.90;;;;;;4839452;29;20377;-84
2021/09/29 06:19:10;;;;;;;11.63;2.05;;;15.50;99.90;;;;;;4838059;29;20526;-84
2021/09/29 06:21:36;;;;;;;12.50;1.85;;;15.50;99.90;;;;;;4839321;29;20069;-84
2021/09/29 06:24:02;;;;;;;16.20;2.38;;;15.50;99.90;;;;;;4830408;29;20034;-84
2021/09/29 06:26:28;;;;;;;12.93;2.03;;;15.50;99.90;;;;;;4838366;29;20030;-84
2021/09/29 06:28:54;;;;;;;13.30;2.13;;;15.60;99.90;;;;;;4839108;29;20035;-84
2021/09/29 06:31:19;;;;;;;12.45;1.92;;;15.60;99.90;;;;;;4839396;29;20506;-84
2021/09/29 06:33:49;;;;;;;16.75;2.78;;;15.80;99.90;;;;;;4839373;29;20034;-85
2021/09/29 06:36:16;;;;;;;9.90;1.77;;;15.90;99.90;;;;;;4832055;29;20037;-84
2021/09/29 06:38:42;;;;;;;24.17;2.22;;;15.90;99.90;;;;;;4831609;29;20018;-85
2021/09/29 06:41:08;;;;;;;13.10;1.75;;;15.90;99.90;;;;;;4828580;29;20516;-85
2021/09/29 06:43:33;;;;;;;15.90;2.28;;;15.80;99.90;;;;;;4831026;29;20023;-85
2021/09/29 06:45:59;;;;;;;12.93;1.60;;;15.80;99.90;;;;;;4838473;29;20026;-85
2021/09/29 06:48:25;;;;;;;10.48;1.40;;;15.70;99.90;;;;;;4831182;29;20026;-85
2021/09/29 06:50:50;;;;;;;9.40;1.40;;;15.70;99.90;;;;;;4838887;29;20407;-85
2021/09/29 06:53:21;;;;;;;10.93;1.77;;;15.70;99.90;;;;;;4838893;29;20022;-85
2021/09/29 06:55:50;;;;;;;10.85;1.90;;;15.70;99.90;;;;;;4833329;29;20031;-85
2021/09/29 06:58:17;;;;;;;14.30;1.65;;;15.70;99.90;;;;;;4841566;29;20057;-86
2021/09/29 07:00:42;;;;;;;13.27;1.88;;;15.90;99.90;;;;;;4842618;29;20045;-86
2021/09/29 07:03:08;;;;;;;11.25;1.67;;;15.90;99.90;;;;;;4842716;29;20034;-87
2021/09/29 07:05:34;;;;;;;10.93;1.73;;;16.00;99.90;;;;;;4842609;29;20053;-85
2021/09/29 07:08:01;;;;;;;14.20;1.75;;;16.10;99.90;;;;;;4842787;29;20062;-86
2021/09/29 07:10:28;;;;;;;13.65;1.92;;;16.20;99.90;;;;;;4842449;29;20042;-86
2021/09/29 07:12:55;;;;;;;16.17;1.95;;;16.20;99.90;;;;;;4830742;29;20511;-86
2021/09/29 07:15:20;;;;;;;11.82;1.83;;;16.20;99.90;;;;;;4841225;29;20042;-86
2021/09/29 07:17:46;;;;;;;12.18;1.40;;;16.30;99.90;;;;;;4825823;29;20514;-86
2021/09/29 07:20:12;;;;;;;12.45;1.85;;;16.40;99.90;;;;;;4841704;29;20048;-87
2021/09/29 07:22:39;;;;;;;15.05;1.77;;;16.50;99.90;;;;;;4832546;29;20499;-86
2021/09/29 07:25:06;;;;;;;9.48;2.03;;;16.50;99.90;;;;;;4837173;29;20034;-86
2021/09/29 07:27:31;;;;;;;12.93;1.90;;;16.50;99.90;;;;;;4828861;29;20548;-86
2021/09/29 07:29:57;;;;;;;10.07;2.22;;;16.60;99.90;;;;;;4827423;29;20039;-86
2021/09/29 07:32:24;;;;;;;11.05;1.60;;;16.60;99.90;;;;;;4836154;29;20030;-87
2021/09/29 07:34:50;;;;;;;11.13;2.05;;;16.50;99.90;;;;;;4830443;29;20175;-87
2021/09/29 07:37:16;;;;;;;11.15;1.88;;;16.50;99.90;;;;;;4840588;29;20502;-87
2021/09/29 07:39:43;;;;;;;11.02;1.42;;;16.50;99.90;;;;;;4835353;29;20045;-87
2021/09/29 07:42:09;;;;;;;12.82;1.30;;;16.50;99.90;;;;;;4834836;29;20033;-87
2021/09/29 07:44:34;;;;;;;5.97;1.30;;;16.50;99.90;;;;;;4834352;29;20041;-87
2021/09/29 07:47:00;;;;;;;9.45;1.13;;;16.50;99.90;;;;;;4841446;29;20030;-87
2021/09/29 07:49:26;;;;;;;6.20;0.90;;;16.50;99.90;;;;;;4840111;29;20026;-87
2021/09/29 07:51:52;;;;;;;10.07;1.45;;;16.50;99.90;;;;;;4833417;29;20109;-87
2021/09/29 07:54:18;;;;;;;8.68;1.40;;;16.40;99.90;;;;;;4825774;29;20030;-87
2021/09/29 07:56:43;;;;;;;6.63;1.20;;;16.50;99.90;;;;;;4806270;29;20066;-87
2021/09/29 07:59:09;;;;;;;8.88;1.25;;;16.50;99.90;;;;;;4825685;29;20032;-87
2021/09/29 08:01:34;;;;;;;10.00;1.00;;;16.50;99.90;;;;;;4831225;29;20329;-87
2021/09/29 08:04:00;;;;;;;8.57;1.13;;;16.50;99.90;;;;;;4837617;29;20046;-87
2021/09/29 08:06:28;;;;;;;9.55;1.25;;;16.50;99.90;;;;;;4824936;29;20061;-87
2021/09/29 08:08:53;;;;;;;6.80;0.90;;;16.60;99.90;;;;;;4824771;29;20053;-86
2021/09/29 08:11:19;;;;;;;9.43;1.20;;;16.70;99.90;;;;;;4840382;29;20484;-86
2021/09/29 08:13:45;;;;;;;9.70;1.10;;;16.80;99.90;;;;;;4825079;29;20137;-87
2021/09/29 08:16:11;;;;;;;6.00;1.10;;;16.80;99.90;;;;;;4845326;29;20027;-87
2021/09/29 08:18:36;;;;;;;8.32;1.30;;;16.90;99.90;;;;;;4840450;29;20052;-86
2021/09/29 08:21:08;;;;;;;3.83;0.73;;;16.90;99.90;;;;;;4829768;29;20022;-86
2021/09/29 08:23:36;;;;;;;6.35;1.00;;;17.00;99.90;;;;;;4835562;29;20037;-86
2021/09/29 08:31:27;;;;;;;6.53;0.90;;;17.10;99.90;;;;;;4827455;29;20038;-86
2021/09/29 08:39:27;;;;;;;5.05;0.93;;;17.30;99.90;;;;;;4834313;29;20131;-86
2021/09/29 09:16:31;;;;;;;4.53;0.68;;;17.80;99.90;;;;;;4834890;29;20053;-86
2021/09/29 09:18:59;;;;;;;4.60;0.43;;;17.90;99.90;;;;;;4821802;29;20125;-86
2021/09/29 09:21:27;;;;;;;3.45;0.50;;;18.00;99.90;;;;;;4836500;29;20045;-86
2021/09/29 09:23:54;;;;;;;4.88;0.68;;;18.10;99.90;;;;;;4825386;29;20060;-85
2021/09/29 09:26:28;;;;;;;3.92;0.68;;;18.20;99.90;;;;;;4837315;29;20060;-86
2021/09/29 09:29:06;;;;;;;1.95;0.52;;;18.40;99.90;;;;;;4829768;29;20018;-85
2021/09/29 09:31:32;;;;;;;5.63;0.93;;;18.60;99.90;;;;;;4827564;29;20080;-85
2021/09/29 09:34:02;;;;;;;2.92;0.70;;;18.50;99.90;;;;;;4836174;29;20038;-85
2021/09/29 09:36:50;;;;;;;1.70;0.55;;;18.50;99.90;;;;;;4825729;29;20070;-85
2021/09/29 09:39:22;;;;;;;6.40;1.50;;;18.60;99.90;;;;;;4838260;29;20564;-85
2021/09/29 09:41:58;;;;;;;3.70;0.80;;;18.40;99.90;;;;;;4835541;29;20067;-85
2021/09/29 09:44:33;;;;;;;8.52;0.80;;;18.40;99.90;;;;;;4841145;29;20079;-86
2021/09/29 09:47:05;;;;;;;5.50;0.70;;;18.20;99.90;;;;;;4841950;29;20026;-85
2021/09/29 09:49:45;;;;;;;5.57;0.82;;;18.20;99.90;;;;;;4840086;29;20030;-86
2021/09/29 09:52:11;;;;;;;4.57;0.55;;;18.10;99.90;;;;;;4842618;29;20404;-85
2021/09/29 09:54:39;;;;;;;4.18;0.40;;;18.00;99.90;;;;;;4839972;29;20026;-86
2021/09/29 09:57:21;;;;;;;3.92;0.60;;;18.20;99.90;;;;;;4831891;29;20032;-85
2021/09/29 09:59:51;;;;;;;3.00;0.43;;;18.40;99.90;;;;;;4835793;29;20508;-85
2021/09/29 10:02:18;;;;;;;4.00;0.52;;;18.70;99.90;;;;;;4833372;29;20034;-85
2021/09/29 10:04:45;;;;;;;4.80;0.65;;;18.60;99.90;;;;;;4838973;29;20046;-85
2021/09/29 10:07:11;;;;;;;4.65;0.80;;;18.50;99.90;;;;;;4831057;29;21382;-86
2021/09/29 10:09:48;;;;;;;4.88;0.68;;;18.50;99.90;;;;;;4829557;29;20432;-85
2021/09/29 10:23:50;;;;;;;4.57;0.70;;;18.60;99.90;;;;;;4833323;29;20041;-85
2021/09/29 10:28:45;;;;;;;5.75;0.80;;;18.40;99.90;;;;;;4839851;29;20273;-85
2021/09/29 10:33:44;;;;;;;6.68;0.80;;;18.50;99.90;;;;;;4832917;29;20365;-85
2021/09/29 10:42:23;;;;;;;3.58;0.85;;;18.90;99.90;;;;;;4841461;29;20040;-85
2021/09/29 10:45:28;;;;;;;4.32;0.70;;;19.40;99.90;;;;;;4841492;29;20049;-85
2021/09/29 11:05:13;;;;;;;5.45;0.80;;;19.40;99.90;;;;;;4838215;29;20044;-85
2021/09/29 11:29:46;;;;;;;3.85;0.60;;;19.20;98.70;;;;;;4841810;29;20041;-85
2021/09/29 11:32:41;;;;;;;3.53;0.60;;;19.30;99.10;;;;;;4824937;29;20094;-85
2021/09/29 11:35:16;;;;;;;6.60;0.85;;;19.20;99.10;;;;;;4838192;29;20022;-85
2021/09/29 11:38:36;;;;;;;4.25;0.80;;;19.30;98.40;;;;;;4841082;29;20547;-85
2021/09/29 12:10:36;;;;;;;4.82;0.75;;;19.50;91.30;;;;;;4841289;29;20033;-87
2021/09/29 12:13:06;;;;;;;4.20;0.77;;;19.50;92.00;;;;;;4840562;29;20445;-88
2021/09/29 12:15:44;;;;;;;3.17;0.60;;;19.60;94.30;;;;;;4840212;29;20063;-87
2021/09/29 12:18:11;;;;;;;3.67;0.77;;;19.70;94.20;;;;;;4840854;29;20045;-87
2021/09/29 12:20:52;;;;;;;3.38;1.00;;;19.90;91.00;;;;;;4840219;29;20069;-87
2021/09/29 12:23:19;;;;;;;6.88;1.08;;;19.80;88.30;;;;;;4840593;29;20026;-87
2021/09/29 12:36:25;;;;;;;3.42;0.63;;;19.70;90.90;;;;;;4840718;29;20030;-85
2021/09/29 12:38:51;;;;;;;3.03;0.70;;;19.90;90.20;;;;;;4840919;29;20102;-85
2021/09/29 12:41:17;;;;;;;4.57;1.08;;;19.80;86.90;;;;;;4840615;29;20026;-85
2021/09/29 12:43:43;;;;;;;7.60;1.33;;;19.90;90.30;;;;;;4839980;29;20421;-85
2021/09/29 12:46:15;;;;;;;4.75;1.05;;;19.90;88.00;;;;;;4835923;29;20038;-86
2021/09/29 12:48:42;;;;;;;3.70;0.75;;;19.80;88.00;;;;;;4833707;29;20022;-85
2021/09/29 12:51:13;;;;;;;4.00;1.33;;;19.70;87.60;;;;;;4838689;29;20631;-85
2021/09/29 12:53:49;;;;;;;7.95;1.38;;;19.80;89.10;;;;;;4840340;29;20053;-85
2021/09/29 12:56:18;;;;;;;4.13;1.08;;;20.00;88.70;;;;;;4840080;29;20403;-85
2021/09/29 12:58:47;;;;;;;4.40;1.27;;;20.20;91.40;;;;;;4840447;29;20488;-86
2021/09/29 13:01:14;;;;;;;4.13;1.23;;;20.40;90.10;;;;;;4840129;29;20097;-85
2021/09/29 13:03:40;;;;;;;2.90;1.23;;;20.30;87.80;;;;;;4839986;29;20102;-85
2021/09/29 13:06:09;;;;;;;5.05;1.80;;;20.20;89.40;;;;;;4839896;29;20421;-85
2021/09/29 13:08:37;;;;;;;9.50;1.30;;;20.40;90.40;;;;;;4822951;29;20121;-85
2021/09/29 13:11:03;;;;;;;4.05;1.02;;;20.50;89.50;;;;;;4840224;29;20026;-85
2021/09/29 13:13:35;;;;;;;10.23;0.93;;;20.40;88.50;;;;;;4838772;29;20664;-87
2021/09/29 13:16:04;;;;;;;3.53;0.70;;;20.40;88.70;;;;;;4836587;29;20045;-85
2021/09/29 13:21:00;;;;;;;5.07;1.00;;;20.20;86.00;;;;;;4839183;29;20048;-85
2021/09/29 13:23:39;;;;;;;3.35;1.00;;;20.40;84.40;;;;;;4837683;29;20265;-86
2021/09/29 13:36:56;;;;;;;7.03;0.80;;;20.90;84.60;;;;;;4829067;29;20037;-85
2021/09/29 13:39:21;;;;;;;4.65;0.57;;;20.70;87.20;;;;;;4837851;29;20125;-86
2021/09/29 13:41:53;;;;;;;4.93;0.80;;;20.60;85.00;;;;;;4823245;29;20030;-86
2021/09/29 13:44:20;;;;;;;8.60;1.10;;;20.30;88.40;;;;;;4828731;29;20062;-85
2021/09/29 13:46:46;;;;;;;7.07;0.82;;;20.20;90.40;;;;;;4823458;29;20022;-86
2021/09/29 13:49:12;;;;;;;8.90;1.02;;;20.10;91.60;;;;;;4828572;29;20487;-86
2021/09/29 13:51:41;;;;;;;6.18;1.00;;;20.00;92.30;;;;;;4839092;29;20096;-86
2021/09/29 13:54:09;;;;;;;7.47;1.13;;;20.10;92.00;;;;;;4832586;29;20030;-84
2021/09/29 13:57:20;;;;;;;7.72;1.20;;;20.40;92.70;;;;;;4836990;29;20109;-85
2021/09/29 14:31:29;;;;;;;6.38;1.02;;;20.50;93.40;;;;;;4853762;29;20037;-83
2021/09/29 14:33:54;;;;;;;8.18;1.05;;;20.50;91.50;;;;;;4840882;29;20086;-85
2021/09/29 14:36:20;;;;;;;7.13;1.23;;;20.50;92.40;;;;;;4838667;29;20038;-83
2021/09/29 14:38:46;;;;;;;8.57;1.40;;;20.90;92.90;;;;;;4832120;29;20585;-83
2021/09/29 14:41:12;;;;;;;6.78;1.35;;;20.90;92.60;;;;;;4837686;29;20033;-84
2021/09/29 14:43:38;;;;;;;6.78;1.00;;;21.10;92.80;;;;;;4832831;29;20025;-83
2021/09/29 14:46:05;;;;;;;5.68;1.10;;;21.50;92.00;;;;;;4840167;29;20121;-85
2021/09/29 14:48:31;;;;;;;9.05;1.48;;;22.00;91.80;;;;;;4830646;29;20037;-85
2021/09/29 14:50:57;;;;;;;7.15;1.60;;;22.50;90.90;;;;;;4832644;29;20403;-84
2021/09/29 14:53:22;;;;;;;7.35;1.40;;;22.90;89.80;;;;;;4837655;29;20488;-85
2021/09/29 14:55:48;;;;;;;14.38;2.20;;;23.30;89.10;;;;;;4832515;29;20038;-85
2021/09/29 14:58:14;;;;;;;7.65;1.40;;;23.90;86.80;;;;;;4838429;29;20026;-84
2021/09/29 15:00:39;;;;;;;9.35;1.52;;;24.40;87.00;;;;;;4836058;29;20141;-84
2021/09/29 15:03:05;;;;;;;11.95;1.67;;;25.70;83.50;;;;;;4832124;29;20104;-85
2021/09/29 15:05:31;;;;;;;5.70;1.17;;;25.70;81.80;;;;;;4834683;29;20113;-85
2021/09/29 15:07:57;;;;;;;5.63;1.52;;;26.40;81.60;;;;;;4821981;29;20037;-85
2021/09/29 15:10:23;;;;;;;8.35;1.85;;;27.00;79.50;;;;;;4837691;29;20045;-79
2021/09/29 15:12:48;;;;;;;5.65;1.25;;;27.00;77.60;;;;;;4838368;29;20030;-79
2021/09/29 15:15:20;;;;;;;8.02;1.42;;;27.30;75.60;;;;;;4837755;29;20049;-79
2021/09/29 15:23:12;;;;;;;11.63;1.40;;;27.50;76.60;;;;;;4837251;29;20167;-78
2021/09/29 15:47:19;;;;;;;12.35;3.28;;;29.30;68.10;;;;;;4830342;29;20034;-82
2021/09/29 15:52:32;;;;;;;7.10;2.70;;;28.80;66.50;;;;;;4828393;29;20035;-82
2021/09/29 15:55:08;;;;;;;7.97;1.67;;;29.90;65.70;;;;;;4839030;29;20025;-82
2021/09/29 15:57:57;;;;;;;7.07;1.55;;;30.70;63.40;;;;;;4836045;29;20480;-81
2021/09/29 16:02:54;;;;;;;5.90;1.20;;;27.60;66.30;;;;;;4832672;29;20037;-82
2021/09/29 16:07:55;;;;;;;8.07;1.20;;;26.60;68.10;;;;;;4832190;29;20126;-82
2021/09/29 16:13:32;;;;;;;6.25;1.45;;;26.30;67.90;;;;;;4834204;29;20064;-82
2021/09/29 16:18:53;;;;;;;6.60;1.40;;;25.70;71.60;;;;;;4837219;29;20026;-82
2021/09/29 16:21:44;;;;;;;5.70;1.35;;;25.60;71.80;;;;;;4840463;29;20032;-82
2021/09/29 16:32:26;;;;;;;5.85;1.17;;;25.00;72.60;;;;;;4831759;29;20049;-82
2021/09/29 16:35:37;;;;;;;6.72;0.95;;;24.20;75.50;;;;;;4836619;29;20499;-81
2021/09/29 16:37:41;;;;;;;7.28;1.38;;;24.50;73.40;;;;;;4821035;29;20049;-82
2021/09/29 16:40:07;;;;;;;9.90;1.55;;;23.80;74.20;;;;;;4824288;29;20031;-81
2021/09/29 16:42:33;;;;;;;8.43;1.65;;;23.00;75.30;;;;;;4823378;29;20026;-82
2021/09/29 16:45:02;;;;;;;8.50;1.65;;;21.70;77.50;;;;;;4829148;29;20026;-81
2021/09/29 16:47:29;;;;;;;7.97;1.25;;;20.70;80.10;;;;;;4828681;29;20087;-82